Time;durP1;ratioP1;P1;durP2;ratioP2;P2;SDS_P1;SDS_P2;PMS_P1;PMS_P2;Temp;Humidity;BMP_temperature;BMP_pressure;BME280_temperature;BME280_humidity;BME280_pressure;Samples;Min_cycle;Max_cycle;Signal;HPM_P1;HPM_P2
2021/03/17 00:00:48;;;;;;;1.15;0.40;;;5.60;52.10;;;4.94;40.71;100690.25;5010592;28;20046;-43
2021/03/17 00:03:15;;;;;;;1.10;0.30;;;5.50;51.50;;;4.82;41.29;100703.97;5031656;28;20029;-48
2021/03/17 00:05:44;;;;;;;1.98;0.20;;;5.50;51.90;;;4.76;41.20;100698.41;5048245;28;20033;-45
2021/03/17 00:08:10;;;;;;;1.20;0.30;;;5.40;52.00;;;4.71;41.56;100696.16;5045513;28;20037;-45
2021/03/17 00:10:41;;;;;;;1.45;0.28;;;5.30;52.60;;;4.68;41.65;100688.59;5045916;28;20076;-48
2021/03/17 00:13:07;;;;;;;0.95;0.22;;;5.30;52.70;;;4.80;41.08;100703.25;5027815;28;20055;-48
2021/03/17 00:15:40;;;;;;;2.47;0.30;;;5.30;52.20;;;4.79;41.99;100693.84;5039196;28;20041;-47
2021/03/17 00:18:12;;;;;;;0.82;0.30;;;5.40;52.90;;;4.64;42.13;100702.63;5028367;28;20445;-43
2021/03/17 00:20:39;;;;;;;2.72;0.32;;;5.30;53.90;;;4.51;43.01;100699.19;5027465;28;20064;-43
2021/03/17 00:23:06;;;;;;;4.60;0.30;;;5.20;54.40;;;4.41;43.44;100698.97;5028243;28;20124;-49
2021/03/17 00:25:35;;;;;;;0.70;0.20;;;5.10;55.00;;;4.56;42.04;100703.13;5039626;28;20049;-46
2021/03/17 00:28:02;;;;;;;1.02;0.30;;;5.10;53.50;;;4.81;41.49;100696.34;5048107;28;20029;-48
2021/03/17 00:30:40;;;;;;;0.82;0.38;;;5.30;52.90;;;4.51;44.15;100701.78;5027947;28;20366;-46
2021/03/17 00:33:09;;;;;;;0.68;0.20;;;5.20;54.50;;;4.45;43.52;100700.41;5020673;28;20099;-45
2021/03/17 00:35:36;;;;;;;2.80;0.40;;;5.10;54.90;;;4.37;43.48;100691.53;5048000;28;20037;-45
2021/03/17 00:38:03;;;;;;;0.90;0.30;;;5.00;54.90;;;4.25;43.87;100695.75;5032282;28;20467;-48
2021/03/17 00:40:29;;;;;;;2.28;0.30;;;4.90;55.20;;;4.23;44.18;100695.00;5028103;28;20048;-43
2021/03/17 00:42:55;;;;;;;1.30;0.30;;;4.90;55.30;;;4.28;44.18;100691.19;5027386;28;20037;-46
2021/03/17 00:45:21;;;;;;;0.50;0.20;;;4.90;55.30;;;4.29;43.63;100682.53;5028083;28;20041;-43
2021/03/17 00:47:47;;;;;;;2.95;0.30;;;4.90;54.70;;;4.28;43.54;100680.03;5026945;28;20203;-45
2021/03/17 00:50:16;;;;;;;1.75;0.30;;;4.90;54.70;;;4.32;43.43;100689.22;5028136;28;20104;-48
2021/03/17 00:52:44;;;;;;;1.08;0.20;;;4.90;54.40;;;4.36;43.24;100679.53;5026015;28;20045;-49
2021/03/17 00:55:12;;;;;;;0.88;0.20;;;4.90;54.40;;;4.32;43.80;100684.06;5027464;28;20040;-43
2021/03/17 00:57:40;;;;;;;0.73;0.10;;;4.90;54.90;;;4.30;43.43;100675.59;5029858;28;20033;-46
2021/03/17 01:00:11;;;;;;;1.30;0.30;;;4.80;54.70;;;4.24;43.67;100681.19;5014056;28;20026;-47
2021/03/17 01:02:38;;;;;;;0.60;0.10;;;4.80;54.60;;;4.28;43.35;100673.13;5032988;28;20056;-47
2021/03/17 01:05:05;;;;;;;1.02;0.22;;;4.90;54.60;;;4.22;43.57;100673.56;5048558;28;20372;-45
2021/03/17 01:07:31;;;;;;;0.93;0.25;;;4.80;54.80;;;4.14;44.00;100670.63;5031822;28;20490;-48
2021/03/17 01:09:57;;;;;;;1.13;0.28;;;4.70;55.10;;;4.06;44.30;100672.88;5030782;28;20041;-46
2021/03/17 01:12:23;;;;;;;0.73;0.20;;;4.70;55.70;;;3.99;44.33;100661.28;5012421;28;20091;-43
2021/03/17 01:14:49;;;;;;;0.82;0.22;;;4.60;56.00;;;4.04;44.17;100659.25;5047009;28;20071;-45
2021/03/17 01:17:15;;;;;;;0.90;0.20;;;4.60;55.70;;;4.02;44.34;100657.69;5030618;28;20049;-46
2021/03/17 01:19:41;;;;;;;1.20;0.22;;;4.60;55.60;;;4.04;44.01;100663.56;5031267;28;20040;-43
2021/03/17 01:22:08;;;;;;;2.42;0.20;;;4.60;55.50;;;3.99;44.56;100666.44;5030530;28;20283;-44
2021/03/17 01:24:34;;;;;;;2.65;0.28;;;4.60;55.80;;;3.95;44.43;100654.66;5038598;28;20056;-43
2021/03/17 01:27:00;;;;;;;1.30;0.20;;;4.50;55.80;;;3.95;44.33;100654.66;5051342;28;20403;-47
2021/03/17 01:29:26;;;;;;;0.80;0.20;;;4.50;55.80;;;3.94;44.50;100653.03;5038243;28;20037;-46
2021/03/17 01:31:52;;;;;;;0.75;0.10;;;4.50;55.80;;;3.92;44.43;100649.72;5031270;28;20396;-47
2021/03/17 01:34:18;;;;;;;0.40;0.10;;;4.50;55.70;;;3.91;44.64;100642.91;5034990;28;20089;-49
2021/03/17 01:36:44;;;;;;;1.55;0.10;;;4.40;55.60;;;3.90;44.72;100651.56;5051179;28;20115;-49
2021/03/17 01:39:11;;;;;;;1.35;0.20;;;4.50;55.80;;;3.86;44.47;100645.78;5041166;28;20060;-46
2021/03/17 01:41:37;;;;;;;1.83;0.10;;;4.40;56.00;;;3.83;44.41;100634.81;5031327;28;20033;-44
2021/03/17 01:44:03;;;;;;;0.93;0.20;;;4.40;55.90;;;3.82;44.89;100633.16;5031587;28;20034;-50
2021/03/17 01:46:30;;;;;;;0.90;0.10;;;4.40;56.30;;;3.88;44.44;100632.78;5051233;28;20041;-43
2021/03/17 01:48:56;;;;;;;0.85;0.10;;;4.40;55.80;;;3.82;44.64;100633.16;5031062;28;20033;-43
2021/03/17 01:51:22;;;;;;;0.50;0.15;;;4.40;55.90;;;3.85;44.38;100628.66;5051004;28;20036;-48
2021/03/17 01:53:48;;;;;;;0.38;0.10;;;4.40;55.60;;;3.78;44.13;100631.75;5045521;28;20388;-49
2021/03/17 01:56:16;;;;;;;0.85;0.15;;;4.40;55.60;;;3.74;44.71;100623.38;5049307;28;20029;-44
2021/03/17 01:58:42;;;;;;;1.27;0.20;;;4.30;56.10;;;3.73;45.09;100628.63;5035792;28;20099;-45
2021/03/17 02:01:08;;;;;;;0.80;0.10;;;4.30;56.30;;;3.70;45.04;100616.75;5029793;28;20133;-45
2021/03/17 02:03:34;;;;;;;0.95;0.10;;;4.30;56.50;;;3.69;45.02;100622.00;5030486;28;20045;-50
2021/03/17 02:06:00;;;;;;;0.50;0.10;;;4.20;56.50;;;3.64;45.34;100623.13;5041007;28;20074;-50
2021/03/17 02:08:38;;;;;;;2.03;0.20;;;4.20;56.70;;;3.65;45.26;100619.63;5049493;28;20086;-47
2021/03/17 02:11:05;;;;;;;1.40;0.13;;;4.20;56.60;;;3.66;45.23;100617.88;5032254;28;20083;-49
2021/03/17 02:14:04;;;;;;;0.57;0.10;;;4.20;56.70;;;3.63;45.33;100618.88;5030414;28;20069;-47
2021/03/17 02:16:57;;;;;;;1.70;0.10;;;4.20;56.60;;;3.66;44.89;100607.56;5045827;28;20076;-49
2021/03/17 02:19:50;;;;;;;0.30;0.00;;;4.20;56.20;;;3.66;44.78;100610.97;5029980;28;20144;-48
2021/03/17 02:22:58;;;;;;;0.50;0.10;;;4.20;56.00;;;3.49;46.01;100605.22;5010640;28;20528;-44
2021/03/17 02:25:41;;;;;;;1.20;0.10;;;4.10;57.30;;;3.42;46.60;100609.91;4999167;28;20041;-43
2021/03/17 02:28:39;;;;;;;0.38;0.10;;;4.00;58.00;;;3.52;46.41;100605.03;5012355;28;20041;-44
2021/03/17 02:31:46;;;;;;;2.10;0.10;;;4.00;57.50;;;3.44;46.01;100608.06;5019495;28;20397;-49
2021/03/17 02:34:15;;;;;;;6.07;0.10;;;4.00;57.50;;;3.33;46.90;100607.91;5041786;28;20049;-45
2021/03/17 02:36:48;;;;;;;0.30;0.10;;;4.00;58.20;;;3.21;47.96;100617.25;5009573;28;20049;-48
2021/03/17 02:39:19;;;;;;;1.85;0.17;;;3.80;59.30;;;3.18;48.11;100606.28;5029508;28;20043;-48
2021/03/17 02:44:18;;;;;;;2.45;0.30;;;3.70;59.80;;;3.20;47.80;100604.47;5088021;28;20055;-44
2021/03/17 02:46:45;;;;;;;0.60;0.20;;;3.70;59.40;;;3.17;47.78;100609.78;5090283;28;20025;-43
2021/03/17 02:49:18;;;;;;;0.68;0.10;;;3.70;59.60;;;3.13;48.05;100606.56;5089868;28;20433;-46
2021/03/17 02:51:55;;;;;;;1.65;0.10;;;3.70;59.60;;;3.09;47.83;100607.69;5090078;28;20031;-46
2021/03/17 02:54:23;;;;;;;1.08;0.20;;;3.70;59.50;;;3.15;47.40;100604.72;5072831;28;20128;-44
2021/03/17 02:56:57;;;;;;;0.85;0.10;;;3.70;59.20;;;3.23;46.91;100612.00;5072117;28;20059;-46
2021/03/17 02:59:26;;;;;;;0.98;0.10;;;3.70;58.70;;;3.23;46.85;100605.09;5072358;28;20047;-47
2021/03/17 03:01:56;;;;;;;1.58;0.10;;;3.80;58.50;;;3.16;47.16;100606.38;5088316;28;20119;-49
2021/03/17 03:04:25;;;;;;;1.90;0.20;;;3.70;58.70;;;3.16;47.00;100610.72;5072374;28;20038;-44
2021/03/17 03:06:53;;;;;;;0.45;0.10;;;3.70;58.60;;;3.15;47.30;100607.31;5088548;28;20511;-46
2021/03/17 03:09:23;;;;;;;2.13;0.10;;;3.70;58.80;;;3.16;46.85;100600.41;5071606;28;20028;-47
2021/03/17 03:11:53;;;;;;;1.02;0.10;;;3.70;58.60;;;3.14;47.18;100591.94;5087760;28;20036;-49
2021/03/17 03:14:23;;;;;;;1.85;0.10;;;3.70;58.80;;;3.10;47.53;100591.31;5089712;28;20043;-46
2021/03/17 03:16:53;;;;;;;0.63;0.10;;;3.70;58.90;;;3.04;47.29;100588.28;5088104;28;20035;-44
2021/03/17 03:19:22;;;;;;;0.77;0.10;;;3.60;58.90;;;3.01;47.30;100581.56;5089968;28;20111;-48
2021/03/17 03:21:49;;;;;;;0.30;0.10;;;3.60;58.70;;;3.21;46.04;100580.34;5067713;28;20526;-43
2021/03/17 03:24:16;;;;;;;0.70;0.20;;;3.70;57.60;;;3.26;45.87;100578.34;5071285;28;20039;-46
2021/03/17 03:26:42;;;;;;;0.75;0.20;;;3.80;57.50;;;3.26;45.86;100589.47;5087397;28;20046;-45
2021/03/17 03:29:08;;;;;;;2.15;0.10;;;3.80;57.50;;;3.19;46.78;100587.34;5089178;28;20040;-43
2021/03/17 03:31:35;;;;;;;0.93;0.20;;;3.80;58.60;;;3.05;47.49;100579.63;5070457;28;20491;-46
2021/03/17 03:34:03;;;;;;;0.80;0.20;;;3.60;59.10;;;2.99;48.10;100576.53;5087855;28;20111;-47
2021/03/17 03:36:29;;;;;;;1.45;0.10;;;3.60;59.80;;;2.95;47.88;100576.78;5088978;28;20521;-42
2021/03/17 03:38:59;;;;;;;0.40;0.10;;;3.50;59.80;;;2.94;48.16;100578.53;5087115;28;20130;-47
2021/03/17 03:41:27;;;;;;;1.67;0.20;;;3.50;59.80;;;3.00;47.83;100570.44;5089311;28;20039;-48
2021/03/17 03:43:53;;;;;;;1.15;0.20;;;3.50;59.30;;;2.99;47.45;100571.38;5087682;28;20327;-49
2021/03/17 03:46:20;;;;;;;0.52;0.10;;;3.60;59.30;;;2.96;47.46;100565.59;5089632;28;20317;-46
2021/03/17 03:48:46;;;;;;;0.80;0.20;;;3.50;59.20;;;2.90;47.24;100565.94;5088198;28;20175;-43
2021/03/17 03:51:12;;;;;;;0.55;0.20;;;3.50;58.90;;;2.91;47.04;100565.84;5088670;28;20499;-44
2021/03/17 03:54:15;;;;;;;1.95;0.20;;;3.40;58.70;;;3.13;46.71;100567.13;5086018;28;20032;-47
2021/03/17 03:57:12;;;;;;;0.95;0.20;;;3.60;59.10;;;2.96;48.11;100561.25;5068285;28;20040;-47
2021/03/17 03:59:43;;;;;;;1.50;0.20;;;3.60;59.60;;;2.87;48.08;100566.13;5071843;28;20039;-45
2021/03/17 04:02:13;;;;;;;0.93;0.17;;;3.50;60.00;;;2.92;48.17;100569.25;5069179;28;20473;-42
2021/03/17 04:04:45;;;;;;;0.82;0.57;;;3.50;59.90;;;2.90;48.38;100584.78;5055237;28;20490;-45
2021/03/17 04:07:14;;;;;;;0.65;0.10;;;3.40;60.10;;;2.73;48.49;100595.28;5088579;28;20031;-43
2021/03/17 04:09:47;;;;;;;1.85;0.10;;;3.40;60.70;;;2.56;49.81;100592.88;5069382;28;20036;-44
2021/03/17 04:12:15;;;;;;;0.55;0.20;;;3.20;61.30;;;2.46;49.77;100591.75;5070826;28;20043;-47
2021/03/17 04:14:48;;;;;;;1.10;0.20;;;3.10;62.00;;;2.34;50.52;100603.59;5069317;28;20035;-45
2021/03/17 04:17:36;;;;;;;1.20;0.20;;;3.00;62.60;;;2.27;51.14;100605.69;5066883;28;20128;-44
2021/03/17 04:20:11;;;;;;;1.30;0.30;;;2.90;62.80;;;2.17;52.15;100607.13;5072643;28;20032;-45
2021/03/17 04:22:42;;;;;;;0.60;0.17;;;2.80;63.60;;;2.06;51.99;100614.63;5088335;28;20046;-46
2021/03/17 04:25:11;;;;;;;6.28;0.20;;;2.70;64.40;;;1.97;52.76;100615.13;5086414;28;20032;-45
2021/03/17 04:27:40;;;;;;;2.03;0.30;;;2.60;64.80;;;1.99;52.27;100626.16;5070422;28;20040;-48
2021/03/17 04:30:08;;;;;;;0.80;0.20;;;2.60;64.60;;;2.04;51.63;100621.59;5068675;28;20094;-48
2021/03/17 04:32:37;;;;;;;0.43;0.10;;;2.60;64.50;;;2.03;52.01;100626.81;5049504;28;20143;-46
2021/03/17 04:35:06;;;;;;;1.02;0.17;;;2.60;64.50;;;2.00;52.30;100620.94;5070808;28;20035;-47
2021/03/17 04:37:34;;;;;;;0.90;0.20;;;2.60;65.10;;;1.96;52.53;100628.91;5066416;28;20389;-47
2021/03/17 04:40:01;;;;;;;0.75;0.20;;;2.50;65.50;;;1.88;52.94;100629.34;5051946;28;20051;-45
2021/03/17 04:42:28;;;;;;;4.85;0.20;;;2.50;66.00;;;1.89;52.71;100630.19;5066654;28;20102;-44
2021/03/17 04:44:55;;;;;;;0.80;0.20;;;2.50;65.50;;;1.94;52.93;100638.44;5067142;28;20037;-46
2021/03/17 04:47:22;;;;;;;1.27;0.10;;;2.50;65.70;;;1.84;54.02;100642.44;5066850;28;20036;-44
2021/03/17 04:49:50;;;;;;;0.68;0.10;;;2.50;67.40;;;1.83;53.30;100636.50;5066283;28;20044;-49
2021/03/17 04:52:19;;;;;;;0.93;0.20;;;2.40;66.50;;;1.94;52.86;100641.84;5066631;28;20047;-47
2021/03/17 04:54:46;;;;;;;2.33;0.20;;;2.50;66.00;;;1.94;52.54;100634.13;5066884;28;20048;-46
2021/03/17 04:57:21;;;;;;;3.50;0.20;;;2.50;65.80;;;1.94;53.32;100638.44;5051941;28;20040;-43
2021/03/17 04:59:49;;;;;;;0.50;0.15;;;2.60;66.70;;;1.92;52.93;100637.69;5066633;28;20184;-44
2021/03/17 05:02:23;;;;;;;0.70;0.20;;;2.60;66.00;;;1.89;52.85;100645.59;5066744;28;20040;-48
2021/03/17 05:04:52;;;;;;;1.85;0.20;;;2.50;65.60;;;1.77;53.20;100639.38;5066865;28;20071;-46
2021/03/17 05:07:20;;;;;;;0.95;0.20;;;2.40;66.30;;;1.73;53.78;100643.03;5058003;28;20048;-47
2021/03/17 05:09:48;;;;;;;2.22;0.50;;;2.40;66.70;;;1.71;53.92;100644.03;5046293;28;20032;-47
2021/03/17 05:12:16;;;;;;;0.95;0.30;;;2.40;67.50;;;1.67;53.93;100644.19;5052732;28;20090;-47
2021/03/17 05:14:44;;;;;;;4.10;0.40;;;2.30;67.90;;;1.69;54.09;100648.44;5066789;28;20115;-45
2021/03/17 05:17:11;;;;;;;1.00;0.20;;;2.30;67.90;;;1.72;53.70;100636.25;5065011;28;20044;-47
2021/03/17 05:19:40;;;;;;;1.42;0.25;;;2.30;68.20;;;1.75;53.74;100636.06;5067933;28;20036;-45
2021/03/17 05:22:09;;;;;;;1.45;0.30;;;2.30;67.70;;;1.77;53.65;100653.97;5066613;28;20070;-47
2021/03/17 05:24:37;;;;;;;2.00;0.20;;;2.30;67.40;;;1.81;53.63;100652.91;5066437;28;20391;-44
2021/03/17 05:27:11;;;;;;;2.63;0.25;;;2.40;67.40;;;1.81;53.62;100655.47;5064009;28;20546;-48
2021/03/17 05:29:39;;;;;;;1.55;0.40;;;2.40;67.20;;;1.86;53.26;100656.03;5067805;28;20091;-46
2021/03/17 05:32:07;;;;;;;1.92;0.30;;;2.50;67.30;;;1.93;53.19;100667.63;5048447;28;20076;-49
2021/03/17 05:34:50;;;;;;;2.90;0.40;;;2.50;67.20;;;1.97;53.27;100667.38;5067668;28;20401;-42
2021/03/17 05:37:16;;;;;;;0.88;0.20;;;2.60;67.70;;;1.99;53.24;100659.56;5063247;28;20086;-46
2021/03/17 05:39:42;;;;;;;1.75;0.38;;;2.60;67.00;;;2.01;53.08;100668.03;5067647;28;20391;-45
2021/03/17 05:42:08;;;;;;;1.20;0.30;;;2.60;67.10;;;2.04;53.57;100667.84;5068571;28;20170;-43
2021/03/17 05:44:34;;;;;;;2.67;0.50;;;2.60;67.40;;;2.06;53.95;100666.03;5070614;28;20062;-46
2021/03/17 05:47:00;;;;;;;1.00;0.20;;;2.70;68.10;;;2.06;55.89;100660.88;5069447;28;20032;-47
2021/03/17 05:49:26;;;;;;;1.30;0.38;;;2.70;70.20;;;2.08;55.31;100664.19;5087609;28;20083;-49
2021/03/17 05:51:52;;;;;;;4.90;0.22;;;2.70;70.80;;;2.11;54.72;100665.78;5089440;28;20052;-49
2021/03/17 05:54:18;;;;;;;1.20;0.20;;;2.70;69.10;;;2.13;54.37;100658.81;5091263;28;20040;-47
2021/03/17 05:56:44;;;;;;;0.80;0.17;;;2.70;68.60;;;2.18;53.71;100656.81;5047659;28;20047;-46
2021/03/17 05:59:10;;;;;;;0.70;0.10;;;2.70;67.80;;;2.26;53.24;100658.03;5064444;28;20036;-45
2021/03/17 06:01:36;;;;;;;1.85;0.40;;;2.80;67.50;;;2.38;52.77;100655.66;5088241;28;20433;-50
2021/03/17 06:04:03;;;;;;;1.40;0.10;;;2.90;66.90;;;2.43;52.72;100653.66;5090045;28;20107;-45
2021/03/17 06:06:37;;;;;;;2.40;0.20;;;3.00;67.00;;;2.49;52.69;100645.59;5072392;28;20055;-47
2021/03/17 06:09:04;;;;;;;0.60;0.10;;;3.10;67.00;;;2.50;52.32;100660.09;5090023;28;20047;-49
2021/03/17 06:11:32;;;;;;;1.00;0.20;;;3.10;66.30;;;2.54;52.31;100646.16;5064156;28;20041;-48
2021/03/17 06:14:00;;;;;;;1.58;0.35;;;3.10;66.30;;;2.63;53.05;100645.63;5052596;28;20040;-49
2021/03/17 06:16:27;;;;;;;1.48;0.28;;;3.20;66.20;;;2.66;51.61;100646.28;5064997;28;20092;-50
2021/03/17 06:18:57;;;;;;;2.85;0.30;;;3.20;65.70;;;2.74;51.43;100652.72;5071048;28;20031;-42
2021/03/17 06:21:24;;;;;;;2.72;0.50;;;3.30;65.10;;;2.83;50.88;100655.59;5089636;28;20089;-46
2021/03/17 06:23:55;;;;;;;1.50;0.20;;;3.40;64.60;;;2.93;50.42;100661.00;5089628;28;20074;-45
2021/03/17 06:26:22;;;;;;;1.13;0.20;;;3.50;64.10;;;2.99;50.26;100658.88;5090741;28;20032;-46
2021/03/17 06:28:48;;;;;;;3.25;0.20;;;3.60;64.00;;;3.06;50.35;100663.66;5088686;28;20032;-48
2021/03/17 06:31:15;;;;;;;1.50;0.28;;;3.70;64.70;;;3.15;49.91;100663.13;5059255;28;20040;-47
2021/03/17 06:33:41;;;;;;;4.10;0.17;;;3.80;63.60;;;3.30;49.89;100664.78;5089078;28;20487;-45
2021/03/17 06:36:19;;;;;;;3.38;0.40;;;3.90;63.90;;;3.51;49.37;100671.19;5088915;28;20459;-44
2021/03/17 06:38:47;;;;;;;1.77;0.43;;;4.10;63.40;;;3.47;49.71;100672.28;5087850;28;20127;-46
2021/03/17 06:41:18;;;;;;;2.67;0.50;;;4.20;63.30;;;3.60;49.46;100675.75;5074446;28;20039;-49
2021/03/17 06:43:47;;;;;;;2.65;0.38;;;4.20;63.30;;;3.77;49.02;100671.31;5082064;28;20079;-52
2021/03/17 06:46:17;;;;;;;1.90;0.30;;;4.40;63.50;;;3.91;48.76;100673.84;5085626;28;20064;-48
2021/03/17 06:48:43;;;;;;;3.03;0.52;;;4.50;62.10;;;4.08;48.69;100677.94;5082683;28;20395;-44
2021/03/17 06:51:19;;;;;;;2.83;0.50;;;4.70;62.40;;;4.36;48.32;100684.69;5065108;28;20195;-45
2021/03/17 06:53:57;;;;;;;3.63;1.05;;;4.90;62.40;;;4.36;48.39;100690.69;5079629;28;20036;-44
2021/03/17 06:56:34;;;;;;;4.97;1.02;;;5.00;61.80;;;4.52;48.00;100683.63;5088904;28;20063;-44
2021/03/17 06:59:08;;;;;;;2.67;1.05;;;5.20;61.50;;;4.64;48.32;100684.56;5086781;28;20047;-46
2021/03/17 07:01:48;;;;;;;4.95;1.20;;;5.30;61.80;;;4.74;47.80;100690.75;5086247;28;20042;-47
2021/03/17 07:04:21;;;;;;;4.22;1.52;;;5.40;61.50;;;4.90;48.07;100693.97;5089738;28;20051;-45
2021/03/17 07:07:01;;;;;;;6.75;2.65;;;5.60;61.90;;;5.25;47.58;100701.09;5086196;28;20032;-45
2021/03/17 07:09:29;;;;;;;4.13;1.55;;;5.90;61.70;;;5.65;46.70;100694.84;5073621;28;20075;-46
2021/03/17 07:12:06;;;;;;;6.63;0.82;;;6.20;60.70;;;5.96;44.47;100690.09;5071594;28;20479;-47
2021/03/17 07:14:44;;;;;;;3.70;0.55;;;6.50;58.70;;;6.24;43.13;100689.75;5088425;28;20028;-46
2021/03/17 07:17:25;;;;;;;3.13;0.50;;;6.80;57.40;;;6.19;41.96;100689.25;5080809;28;20040;-48
2021/03/17 07:19:51;;;;;;;3.05;0.40;;;6.90;55.60;;;6.31;43.73;100685.78;5069136;28;20426;-44
2021/03/17 07:22:17;;;;;;;2.28;0.30;;;6.90;56.70;;;6.32;43.12;100687.44;5080173;28;20032;-44
2021/03/17 07:24:46;;;;;;;4.18;0.60;;;6.90;55.40;;;6.73;42.07;100691.31;5086713;28;20043;-43
2021/03/17 07:27:20;;;;;;;13.50;1.77;;;7.20;55.70;;;6.67;41.52;100684.00;5087108;28;20029;-44
2021/03/17 07:30:05;;;;;;;2.17;0.40;;;7.30;55.30;;;6.76;40.90;100683.31;5083331;28;20487;-46
2021/03/17 07:33:06;;;;;;;1.55;0.30;;;7.30;54.00;;;6.66;40.61;100682.34;5086116;28;20048;-45
2021/03/17 07:35:37;;;;;;;2.03;0.38;;;7.20;54.00;;;6.94;41.40;100676.78;5076886;28;20063;-47
2021/03/17 07:38:16;;;;;;;3.70;0.55;;;7.40;54.70;;;7.11;40.90;100682.41;5085693;28;20387;-47
2021/03/17 07:40:46;;;;;;;3.78;0.38;;;7.60;53.60;;;7.22;40.42;100669.47;5089300;28;20127;-45
2021/03/17 07:43:14;;;;;;;3.50;0.43;;;7.70;53.00;;;7.28;40.18;100675.00;5087703;28;20520;-43
2021/03/17 07:45:40;;;;;;;2.95;0.50;;;7.80;53.40;;;7.18;40.26;100678.41;5089684;28;20051;-45
2021/03/17 07:48:10;;;;;;;3.35;0.57;;;7.80;52.90;;;7.38;40.88;100682.06;5088431;28;20122;-45
2021/03/17 07:50:38;;;;;;;4.65;0.35;;;7.90;53.30;;;7.73;39.47;100679.31;5088148;28;20059;-45
2021/03/17 07:53:11;;;;;;;1.85;0.47;;;8.10;52.90;;;8.01;39.12;100672.78;5086344;28;20040;-48
2021/03/17 07:55:40;;;;;;;1.67;0.50;;;8.40;52.80;;;8.07;39.47;100674.84;5087591;28;20076;-44
2021/03/17 07:58:08;;;;;;;1.85;0.50;;;8.60;52.40;;;8.14;39.24;100671.63;5088357;28;20036;-46
2021/03/17 08:00:37;;;;;;;2.55;0.70;;;8.80;52.20;;;8.39;39.12;100670.50;5083145;28;20040;-44
2021/03/17 08:03:05;;;;;;;2.95;1.00;;;8.90;52.60;;;8.21;38.99;100674.56;5088471;28;20028;-45
2021/03/17 08:05:33;;;;;;;3.03;0.70;;;8.90;52.00;;;8.31;39.44;100676.28;5049481;28;20040;-46
2021/03/17 08:08:01;;;;;;;2.05;0.40;;;8.80;52.40;;;8.16;38.87;100668.91;5086633;28;20123;-45
2021/03/17 08:10:27;;;;;;;1.42;0.40;;;8.80;52.00;;;8.35;38.96;100669.13;5086042;28;20082;-46
2021/03/17 08:12:54;;;;;;;7.03;0.30;;;8.80;51.60;;;8.87;37.83;100664.81;5088492;28;20035;-50
2021/03/17 08:15:21;;;;;;;1.77;0.30;;;9.20;51.30;;;9.05;37.58;100660.63;5087606;28;20032;-44
2021/03/17 08:17:48;;;;;;;1.17;0.30;;;9.40;50.80;;;9.36;36.53;100658.03;5069290;28;20020;-44
2021/03/17 08:20:22;;;;;;;1.48;0.43;;;9.70;50.20;;;9.45;35.98;100658.03;5064618;28;20050;-49
2021/03/17 08:22:51;;;;;;;1.60;0.32;;;9.80;49.70;;;9.70;35.75;100655.91;5068223;28;20028;-47
2021/03/17 08:25:45;;;;;;;4.50;0.50;;;10.10;49.30;;;9.87;32.90;100645.69;5068239;28;20307;-46
2021/03/17 08:28:21;;;;;;;1.17;0.20;;;10.30;46.20;;;10.01;32.58;100647.03;5068323;28;20040;-45
2021/03/17 08:30:50;;;;;;;0.65;0.20;;;10.40;45.80;;;10.27;33.94;100652.56;5068064;28;20036;-51
2021/03/17 08:33:31;;;;;;;1.58;0.22;;;10.60;46.10;;;10.42;31.08;100647.75;5068604;28;20037;-46
2021/03/17 08:36:13;;;;;;;2.10;0.20;;;10.80;44.00;;;10.67;31.26;100641.13;5068257;28;20047;-49
2021/03/17 08:38:57;;;;;;;0.73;0.10;;;11.10;43.90;;;10.80;30.35;100646.88;5051452;28;20033;-49
2021/03/17 08:41:46;;;;;;;0.65;0.20;;;11.20;44.00;;;10.26;30.94;100643.94;5050157;28;20079;-46
2021/03/17 08:44:38;;;;;;;0.65;0.17;;;11.10;43.00;;;10.36;31.54;100641.31;5067954;28;20072;-51
2021/03/17 08:47:28;;;;;;;1.50;0.30;;;10.90;44.90;;;10.33;30.77;100633.78;5066844;28;20059;-46
2021/03/17 08:50:19;;;;;;;2.00;0.20;;;11.10;43.30;;;10.17;30.91;100630.88;5084966;28;20170;-44
2021/03/17 08:52:50;;;;;;;0.30;0.10;;;10.90;43.90;;;10.26;32.92;100638.72;5068669;28;20044;-45
2021/03/17 08:55:39;;;;;;;2.78;0.45;;;10.90;44.00;;;10.21;32.07;100635.72;5087293;28;20040;-48
2021/03/17 08:58:07;;;;;;;1.13;0.20;;;10.90;43.90;;;10.79;32.72;100630.41;5087656;28;20114;-45
2021/03/17 09:00:53;;;;;;;1.25;0.20;;;11.20;44.70;;;11.12;31.68;100625.59;5087069;28;20032;-46
2021/03/17 09:03:31;;;;;;;;;;;11.60;44.80;;;11.47;30.12;100625.69;5083198;28;20040;-47
2021/03/17 09:06:16;;;;;;;0.73;0.20;;;12.00;43.10;;;11.67;30.72;100633.41;5080398;28;19919;-48
2021/03/17 09:09:15;;;;;;;0.35;0.10;;;12.30;43.30;;;11.20;29.88;100630.94;5087607;28;20039;-46
2021/03/17 09:11:41;;;;;;;2.25;0.10;;;12.00;42.20;;;10.79;32.27;100635.63;5067662;28;20033;-44
2021/03/17 09:14:17;;;;;;;0.20;0.10;;;11.60;42.70;;;11.40;31.10;100623.81;5067719;28;20045;-46
2021/03/17 09:17:13;;;;;;;0.50;0.17;;;11.80;43.30;;;11.43;29.11;100620.91;5067965;28;20419;-48
2021/03/17 09:20:13;;;;;;;0.50;0.10;;;12.00;42.30;;;11.73;27.78;100623.19;5071920;28;20129;-45
2021/03/17 09:22:47;;;;;;;0.82;0.10;;;12.30;41.00;;;12.37;27.43;100614.28;5086643;28;20330;-46
2021/03/17 09:25:21;;;;;;;0.73;0.10;;;12.80;41.20;;;12.34;29.29;100613.78;5091622;28;20111;-46
2021/03/17 09:28:01;;;;;;;1.83;0.10;;;12.90;40.90;;;12.57;28.73;100620.16;5091806;28;20118;-47
2021/03/17 09:30:32;;;;;;;0.52;0.20;;;13.10;41.70;;;12.86;29.21;100614.59;5084639;28;20628;-50
2021/03/17 09:33:13;;;;;;;0.57;0.10;;;13.40;41.20;;;13.32;28.32;100608.13;5087512;28;20036;-46
2021/03/17 09:35:39;;;;;;;0.50;0.13;;;13.70;41.10;;;13.57;28.11;100604.59;5087682;28;20036;-45
2021/03/17 09:38:13;;;;;;;0.28;0.10;;;14.00;40.40;;;13.65;26.43;100602.97;5090253;28;20552;-47
2021/03/17 09:40:47;;;;;;;0.73;0.20;;;14.10;37.80;;;13.93;26.72;100604.31;5072346;28;20055;-48
2021/03/17 09:43:51;;;;;;;0.50;0.20;;;14.30;39.10;;;13.75;24.63;100601.00;5089860;28;20135;-46
2021/03/17 09:46:46;;;;;;;0.82;0.20;;;14.40;36.30;;;13.94;25.53;100604.16;5035574;28;20104;-46
2021/03/17 09:49:25;;;;;;;1.48;0.30;;;14.60;38.30;;;14.28;25.86;100601.34;5088859;28;20040;-46
2021/03/17 09:51:59;;;;;;;0.50;0.10;;;14.80;38.60;;;13.57;25.46;100598.53;5090009;28;20191;-48
2021/03/17 09:54:30;;;;;;;0.20;0.03;;;14.50;37.20;;;13.38;26.24;100589.16;5087052;28;20092;-45
2021/03/17 09:57:05;;;;;;;0.25;0.10;;;14.20;37.50;;;13.33;23.70;100591.44;5088911;28;20436;-48
2021/03/17 09:59:35;;;;;;;;;;;14.00;35.70;;;12.88;23.90;100579.47;5078523;28;20085;-49
2021/03/17 10:02:14;;;;;;;3.22;0.10;;;13.70;35.20;;;13.38;26.71;100575.25;5088402;28;19920;-51
2021/03/17 10:04:48;;;;;;;0.10;0.10;;;13.70;39.10;;;14.03;25.95;100575.34;5086070;28;20130;-46
2021/03/17 10:07:23;;;;;;;0.10;0.00;;;14.30;38.40;;;13.81;24.59;100571.56;5080555;28;20040;-49
2021/03/17 10:09:52;;;;;;;0.52;0.00;;;14.30;35.80;;;14.36;25.03;100565.63;5090912;28;20028;-47
2021/03/17 10:12:30;;;;;;;0.10;0.00;;;14.80;36.60;;;14.33;21.53;100563.34;5089825;28;20032;-49
2021/03/17 10:15:01;;;;;;;0.10;0.00;;;14.90;34.40;;;14.27;23.46;100564.81;5085947;28;20043;-50
2021/03/17 10:17:30;;;;;;;4.63;0.10;;;14.90;34.00;;;14.11;24.03;100560.44;5069148;28;20069;-47
2021/03/17 10:20:11;;;;;;;0.95;0.10;;;14.70;35.60;;;14.23;23.90;100563.50;5074606;28;20037;-50
2021/03/17 10:22:37;;;;;;;1.00;0.03;;;14.70;35.80;;;14.28;24.22;100556.78;5087858;28;20044;-43
2021/03/17 10:25:25;;;;;;;0.80;0.10;;;14.90;35.40;;;14.28;24.17;100555.97;5087470;28;20432;-47
2021/03/17 10:28:05;;;;;;;0.32;0.10;;;14.90;35.60;;;14.23;24.13;100555.66;5088661;28;20036;-45
2021/03/17 10:30:43;;;;;;;0.30;0.00;;;15.00;35.80;;;14.21;25.58;100555.81;5071733;28;20395;-47
2021/03/17 10:33:15;;;;;;;1.00;0.10;;;14.90;37.10;;;14.24;26.09;100560.72;5081513;28;20040;-45
2021/03/17 10:35:43;;;;;;;1.00;0.10;;;14.90;37.60;;;14.10;26.26;100550.13;5085118;28;20125;-48
2021/03/17 10:38:10;;;;;;;1.17;0.10;;;14.90;37.30;;;13.96;25.61;100554.22;5077581;28;20182;-46
2021/03/17 10:40:37;;;;;;;4.07;0.10;;;14.70;36.60;;;14.20;26.11;100543.69;5088671;28;20507;-49
2021/03/17 10:43:14;;;;;;;0.43;0.10;;;14.70;37.40;;;14.33;24.89;100542.38;5068204;28;20500;-49
2021/03/17 10:45:52;;;;;;;0.40;0.10;;;14.80;36.60;;;14.44;24.99;100534.19;5070906;28;20037;-48